createdAt,value
2023-01-21T00:00:01.381Z,1019.19
2023-01-21T00:01:01.404Z,1019.18
2023-01-21T00:02:01.422Z,1019.25
2023-01-21T00:03:01.382Z,1019.23
2023-01-21T00:04:01.380Z,1019.25
2023-01-21T00:05:01.392Z,1019.28
2023-01-21T00:06:01.379Z,1019.22
2023-01-21T00:07:01.381Z,1019.28
2023-01-21T00:08:02.729Z,1019.25
2023-01-21T00:09:01.382Z,1019.27
2023-01-21T00:10:01.375Z,1019.33
2023-01-21T00:11:01.421Z,1019.37
2023-01-21T00:12:01.386Z,1019.36
2023-01-21T00:13:01.385Z,1019.35
2023-01-21T00:14:01.384Z,1019.36
2023-01-21T00:15:01.382Z,1019.34
2023-01-21T00:16:01.443Z,1019.32
2023-01-21T00:17:01.375Z,1019.34
2023-01-21T00:18:01.373Z,1019.40
2023-01-21T00:19:01.374Z,1019.41
2023-01-21T00:20:01.385Z,1019.39
2023-01-21T00:21:01.380Z,1019.38
2023-01-21T00:22:01.384Z,1019.43
2023-01-21T00:23:01.375Z,1019.44
2023-01-21T00:24:01.387Z,1019.46
2023-01-21T00:25:01.393Z,1019.47
2023-01-21T00:26:01.375Z,1019.45
2023-01-21T00:27:01.401Z,1019.51
2023-01-21T00:28:01.410Z,1019.53
2023-01-21T00:29:01.381Z,1019.51
2023-01-21T00:30:01.375Z,1019.56
2023-01-21T00:31:01.470Z,1019.54
2023-01-21T00:32:01.461Z,1019.57
2023-01-21T00:33:01.382Z,1019.55
2023-01-21T00:34:01.376Z,1019.56
2023-01-21T00:35:01.387Z,1019.57
2023-01-21T00:36:01.430Z,1019.61
2023-01-21T00:37:01.386Z,1019.59
2023-01-21T00:38:01.391Z,1019.63
2023-01-21T00:39:01.384Z,1019.65
2023-01-21T00:40:01.387Z,1019.69
2023-01-21T00:41:01.392Z,1019.73
2023-01-21T00:42:01.383Z,1019.70
2023-01-21T00:43:01.405Z,1019.71
2023-01-21T00:44:01.385Z,1019.75
2023-01-21T00:45:01.542Z,1019.73
2023-01-21T00:46:01.557Z,1019.78
2023-01-21T00:47:01.377Z,1019.77
2023-01-21T00:48:01.382Z,1019.69
2023-01-21T00:49:01.386Z,1019.69
2023-01-21T00:50:01.392Z,1019.71
2023-01-21T00:51:01.482Z,1019.70
2023-01-21T00:52:01.387Z,1019.68
2023-01-21T00:53:01.385Z,1019.73
2023-01-21T00:54:01.387Z,1019.67
2023-01-21T00:55:01.390Z,1019.67
2023-01-21T00:56:01.445Z,1019.65
2023-01-21T00:57:01.387Z,1019.65
2023-01-21T00:58:01.389Z,1019.66
2023-01-21T00:59:01.416Z,1019.71
2023-01-21T01:00:01.411Z,1019.71
2023-01-21T01:01:01.403Z,1019.72
2023-01-21T01:02:01.389Z,1019.77
2023-01-21T01:03:01.481Z,1019.75
2023-01-21T01:04:01.383Z,1019.79
2023-01-21T01:05:01.390Z,1019.79
2023-01-21T01:06:01.388Z,1019.77
2023-01-21T01:07:01.396Z,1019.81
2023-01-21T01:08:01.391Z,1019.84
2023-01-21T01:09:01.387Z,1019.91
2023-01-21T01:10:01.391Z,1019.85
2023-01-21T01:11:01.432Z,1019.90
2023-01-21T01:12:01.383Z,1019.91
2023-01-21T01:13:01.387Z,1019.93
2023-01-21T01:14:01.386Z,1019.99
2023-01-21T01:15:01.422Z,1019.95
2023-01-21T01:16:01.412Z,1019.94
2023-01-21T01:17:01.385Z,1019.98
2023-01-21T01:18:01.399Z,1019.96
2023-01-21T01:19:01.387Z,1019.95
2023-01-21T01:20:01.439Z,1019.96
2023-01-21T01:21:01.392Z,1019.97
2023-01-21T01:22:01.387Z,1019.96
2023-01-21T01:23:01.401Z,1019.96
2023-01-21T01:24:01.395Z,1020.03
2023-01-21T01:25:01.404Z,1020.02
2023-01-21T01:26:01.394Z,1020.03
2023-01-21T01:27:01.395Z,1020.07
2023-01-21T01:28:01.395Z,1020.03
2023-01-21T01:29:01.395Z,1020.09
2023-01-21T01:30:01.390Z,1020.08
2023-01-21T01:31:01.553Z,1020.09
2023-01-21T01:32:01.397Z,1020.11
2023-01-21T01:33:01.396Z,1020.16
2023-01-21T01:34:01.398Z,1020.11
2023-01-21T01:35:01.393Z,1020.18
2023-01-21T01:36:01.391Z,1020.13
2023-01-21T01:37:01.392Z,1020.16
2023-01-21T01:38:01.397Z,1020.17
2023-01-21T01:39:01.413Z,1020.16
2023-01-21T01:40:01.390Z,1020.17
2023-01-21T01:41:01.399Z,1020.19
2023-01-21T01:42:01.399Z,1020.21
2023-01-21T01:43:01.402Z,1020.23
2023-01-21T01:44:01.415Z,1020.24
2023-01-21T01:45:01.407Z,1020.23
2023-01-21T01:46:01.456Z,1020.22
2023-01-21T01:47:01.447Z,1020.30
2023-01-21T01:48:01.401Z,1020.33
2023-01-21T01:49:01.420Z,1020.29
2023-01-21T01:50:01.440Z,1020.27
2023-01-21T01:51:01.461Z,1020.31
2023-01-21T01:52:01.407Z,1020.28
2023-01-21T01:53:01.396Z,1020.26
2023-01-21T01:54:01.413Z,1020.24
2023-01-21T01:55:01.429Z,1020.31
2023-01-21T01:56:01.429Z,1020.27
2023-01-21T01:57:01.411Z,1020.30
2023-01-21T01:58:01.399Z,1020.28
2023-01-21T01:59:01.405Z,1020.32
2023-01-21T02:00:01.405Z,1020.36
2023-01-21T02:01:01.402Z,1020.35
2023-01-21T02:02:01.429Z,1020.34
2023-01-21T02:03:01.439Z,1020.37
2023-01-21T02:04:01.400Z,1020.38
2023-01-21T02:05:01.402Z,1020.40
2023-01-21T02:06:01.401Z,1020.42
2023-01-21T02:07:01.403Z,1020.41
2023-01-21T02:08:01.409Z,1020.45
2023-01-21T02:09:01.417Z,1020.41
2023-01-21T02:10:01.411Z,1020.46
2023-01-21T02:11:01.404Z,1020.47
2023-01-21T02:12:01.424Z,1020.50
2023-01-21T02:13:01.428Z,1020.50
2023-01-21T02:14:01.408Z,1020.49
2023-01-21T02:15:01.407Z,1020.51
2023-01-21T02:16:01.484Z,1020.54
2023-01-21T02:17:01.415Z,1020.57
2023-01-21T02:18:01.418Z,1020.54
2023-01-21T02:19:01.439Z,1020.49
2023-01-21T02:20:01.408Z,1020.51
2023-01-21T02:21:01.415Z,1020.52
2023-01-21T02:22:01.415Z,1020.51
2023-01-21T02:23:01.407Z,1020.49
2023-01-21T02:24:01.410Z,1020.51
2023-01-21T02:25:01.408Z,1020.52
2023-01-21T02:26:01.418Z,1020.52
2023-01-21T02:27:01.416Z,1020.52
2023-01-21T02:28:01.413Z,1020.50
2023-01-21T02:29:01.408Z,1020.54
2023-01-21T02:30:01.411Z,1020.55
2023-01-21T02:31:01.671Z,1020.59
2023-01-21T02:32:01.420Z,1020.55
2023-01-21T02:33:01.425Z,1020.58
2023-01-21T02:34:01.415Z,1020.62
2023-01-21T02:35:01.436Z,1020.61
2023-01-21T02:36:01.415Z,1020.63
2023-01-21T02:37:01.420Z,1020.64
2023-01-21T02:38:01.420Z,1020.59
2023-01-21T02:39:01.417Z,1020.63
2023-01-21T02:40:01.422Z,1020.65
2023-01-21T02:41:01.421Z,1020.63
2023-01-21T02:42:01.434Z,1020.64
2023-01-21T02:43:01.436Z,1020.63
2023-01-21T02:44:01.426Z,1020.65
2023-01-21T02:45:01.419Z,1020.65
2023-01-21T02:46:01.427Z,1020.65
2023-01-21T02:47:01.420Z,1020.68
2023-01-21T02:48:01.424Z,1020.71
2023-01-21T02:49:01.435Z,1020.70
2023-01-21T02:50:01.421Z,1020.77
2023-01-21T02:51:01.469Z,1020.73
2023-01-21T02:52:01.432Z,1020.75
2023-01-21T02:53:01.425Z,1020.75
2023-01-21T02:54:01.422Z,1020.78
2023-01-21T02:55:01.450Z,1020.74
2023-01-21T02:56:01.436Z,1020.75
2023-01-21T02:57:01.431Z,1020.84
2023-01-21T02:58:01.425Z,1020.79
2023-01-21T02:59:01.432Z,1020.79
2023-01-21T03:00:01.435Z,1020.76
2023-01-21T03:01:01.528Z,1020.81
2023-01-21T03:02:01.478Z,1020.82
2023-01-21T03:03:01.426Z,1020.78
2023-01-21T03:04:01.437Z,1020.82
2023-01-21T03:05:01.428Z,1020.86
2023-01-21T03:06:01.440Z,1020.87
2023-01-21T03:07:01.456Z,1020.89
2023-01-21T03:08:01.431Z,1020.90
2023-01-21T03:09:01.438Z,1020.88
2023-01-21T03:10:01.438Z,1020.91
2023-01-21T03:11:01.442Z,1020.93
2023-01-21T03:12:01.446Z,1020.91
2023-01-21T03:13:01.442Z,1020.86
2023-01-21T03:14:01.437Z,1020.86
2023-01-21T03:15:01.442Z,1020.83
2023-01-21T03:16:01.521Z,1020.89
2023-01-21T03:17:01.444Z,1020.92
2023-01-21T03:18:01.437Z,1020.87
2023-01-21T03:19:01.435Z,1020.89
2023-01-21T03:20:01.436Z,1020.88
2023-01-21T03:21:01.437Z,1020.87
2023-01-21T03:22:01.443Z,1020.88
2023-01-21T03:23:01.467Z,1020.87
2023-01-21T03:24:01.437Z,1020.89
2023-01-21T03:25:01.439Z,1020.87
2023-01-21T03:26:01.456Z,1020.91
2023-01-21T03:27:01.447Z,1020.98
2023-01-21T03:28:01.438Z,1020.93
2023-01-21T03:29:01.445Z,1020.92
2023-01-21T03:30:01.449Z,1020.93
2023-01-21T03:31:01.509Z,1020.95
2023-01-21T03:32:01.443Z,1020.98
2023-01-21T03:33:01.461Z,1021.05
2023-01-21T03:34:01.470Z,1020.99
2023-01-21T03:35:01.440Z,1021.02
2023-01-21T03:36:01.440Z,1021.05
2023-01-21T03:37:01.444Z,1021.05
2023-01-21T03:38:01.440Z,1021.10
2023-01-21T03:39:01.472Z,1021.09
2023-01-21T03:40:01.461Z,1021.17
2023-01-21T03:41:01.455Z,1021.15
2023-01-21T03:42:01.452Z,1021.18
2023-01-21T03:43:01.441Z,1021.17
2023-01-21T03:44:01.448Z,1021.19
2023-01-21T03:45:01.444Z,1021.21
2023-01-21T03:46:01.509Z,1021.21
2023-01-21T03:47:01.445Z,1021.24
2023-01-21T03:48:01.444Z,1021.23
2023-01-21T03:49:01.447Z,1021.25
2023-01-21T03:50:01.450Z,1021.25
2023-01-21T03:51:01.491Z,1021.26
2023-01-21T03:52:01.454Z,1021.24
2023-01-21T03:53:01.452Z,1021.28
2023-01-21T03:54:01.448Z,1021.27
2023-01-21T03:55:01.533Z,1021.31
2023-01-21T03:56:01.452Z,1021.28
2023-01-21T03:57:01.448Z,1021.34
2023-01-21T03:58:01.444Z,1021.35
2023-01-21T03:59:01.445Z,1021.38
2023-01-21T04:00:01.454Z,1021.35
2023-01-21T04:01:01.535Z,1021.37
2023-01-21T04:02:01.483Z,1021.33
2023-01-21T04:03:01.455Z,1021.34
2023-01-21T04:04:01.457Z,1021.38
2023-01-21T04:05:01.452Z,1021.42
2023-01-21T04:06:01.456Z,1021.37
2023-01-21T04:07:01.460Z,1021.37
2023-01-21T04:08:01.455Z,1021.36
2023-01-21T04:09:01.454Z,1021.41
2023-01-21T04:10:01.453Z,1021.42
2023-01-21T04:11:01.479Z,1021.38
2023-01-21T04:12:01.456Z,1021.45
2023-01-21T04:13:01.448Z,1021.44
2023-01-21T04:14:01.473Z,1021.42
2023-01-21T04:15:04.238Z,1021.46
2023-01-21T04:16:01.457Z,1021.49
2023-01-21T04:17:01.447Z,1021.46
2023-01-21T04:18:01.458Z,1021.49
2023-01-21T04:19:01.447Z,1021.46
2023-01-21T04:20:01.456Z,1021.51
2023-01-21T04:21:01.451Z,1021.48
2023-01-21T04:22:01.455Z,1021.51
2023-01-21T04:23:01.449Z,1021.50
2023-01-21T04:24:01.458Z,1021.57
2023-01-21T04:25:01.463Z,1021.60
2023-01-21T04:26:01.469Z,1021.59
2023-01-21T04:27:01.476Z,1021.64
2023-01-21T04:28:01.461Z,1021.61
2023-01-21T04:29:01.459Z,1021.66
2023-01-21T04:30:01.448Z,1021.67
2023-01-21T04:31:01.476Z,1021.63
2023-01-21T04:32:01.478Z,1021.62
2023-01-21T04:33:01.460Z,1021.66
2023-01-21T04:34:01.453Z,1021.71
2023-01-21T04:35:01.454Z,1021.67
2023-01-21T04:36:01.464Z,1021.67
2023-01-21T04:37:01.461Z,1021.61
2023-01-21T04:38:01.461Z,1021.67
2023-01-21T04:39:01.471Z,1021.63
2023-01-21T04:40:01.478Z,1021.65
2023-01-21T04:41:01.481Z,1021.64
2023-01-21T04:42:01.450Z,1021.64
2023-01-21T04:43:01.478Z,1021.66
2023-01-21T04:44:01.462Z,1021.66
2023-01-21T04:45:01.464Z,1021.74
2023-01-21T04:46:01.560Z,1021.71
2023-01-21T04:47:01.459Z,1021.76
2023-01-21T04:48:01.453Z,1021.77
2023-01-21T04:49:01.473Z,1021.76
2023-01-21T04:50:01.463Z,1021.79
2023-01-21T04:51:01.509Z,1021.77
2023-01-21T04:52:01.453Z,1021.74
2023-01-21T04:53:01.461Z,1021.74
2023-01-21T04:54:01.461Z,1021.76
2023-01-21T04:55:01.451Z,1021.76
2023-01-21T04:56:01.466Z,1021.79
2023-01-21T04:57:01.464Z,1021.79
2023-01-21T04:58:01.457Z,1021.80
2023-01-21T04:59:01.525Z,1021.83
2023-01-21T05:00:01.453Z,1021.83
2023-01-21T05:01:01.552Z,1021.84
2023-01-21T05:02:01.504Z,1021.85
2023-01-21T05:03:01.466Z,1021.83
2023-01-21T05:04:01.460Z,1021.85
2023-01-21T05:05:01.466Z,1021.83
2023-01-21T05:06:01.453Z,1021.83
2023-01-21T05:07:01.466Z,1021.81
2023-01-21T05:08:01.459Z,1021.84
2023-01-21T05:09:01.454Z,1021.83
2023-01-21T05:10:01.464Z,1021.84
2023-01-21T05:11:01.463Z,1021.83
2023-01-21T05:12:01.458Z,1021.82
2023-01-21T05:13:01.464Z,1021.81
2023-01-21T05:14:01.456Z,1021.85
2023-01-21T05:15:01.484Z,1021.81
2023-01-21T05:16:01.539Z,1021.82
2023-01-21T05:17:01.520Z,1021.78
2023-01-21T05:18:01.457Z,1021.82
2023-01-21T05:19:01.455Z,1021.79
2023-01-21T05:20:01.465Z,1021.77
2023-01-21T05:21:01.456Z,1021.83
2023-01-21T05:22:01.458Z,1021.81
2023-01-21T05:23:01.472Z,1021.81
2023-01-21T05:24:01.460Z,1021.80
2023-01-21T05:25:01.460Z,1021.78
2023-01-21T05:26:01.460Z,1021.84
2023-01-21T05:27:01.462Z,1021.80
2023-01-21T05:28:01.465Z,1021.80
2023-01-21T05:29:01.465Z,1021.75
2023-01-21T05:30:01.484Z,1021.78
2023-01-21T05:31:01.821Z,1021.79
2023-01-21T05:32:01.517Z,1021.75
2023-01-21T05:33:01.468Z,1021.78
2023-01-21T05:34:01.469Z,1021.76
2023-01-21T05:35:01.472Z,1021.82
2023-01-21T05:36:01.477Z,1021.83
2023-01-21T05:37:01.461Z,1021.82
2023-01-21T05:38:01.467Z,1021.81
2023-01-21T05:39:01.503Z,1021.83
2023-01-21T05:40:01.460Z,1021.75
2023-01-21T05:41:01.476Z,1021.81
2023-01-21T05:42:01.464Z,1021.80
2023-01-21T05:43:01.470Z,1021.82
2023-01-21T05:44:01.479Z,1021.77
2023-01-21T05:45:01.531Z,1021.78
2023-01-21T05:46:01.548Z,1021.80
2023-01-21T05:47:01.521Z,1021.80
2023-01-21T05:48:01.472Z,1021.74
2023-01-21T05:49:01.466Z,1021.75
2023-01-21T05:50:01.474Z,1021.67
2023-01-21T05:51:01.569Z,1021.66
2023-01-21T05:52:01.475Z,1021.69
2023-01-21T05:53:01.486Z,1021.73
2023-01-21T05:54:01.475Z,1021.73
2023-01-21T05:55:02.840Z,1021.76
2023-01-21T05:56:01.480Z,1021.77
2023-01-21T05:57:01.482Z,1021.81
2023-01-21T05:58:01.480Z,1021.79
2023-01-21T05:59:01.474Z,1021.82
2023-01-21T06:00:01.488Z,1021.85
2023-01-21T06:01:01.468Z,1021.86
2023-01-21T06:02:01.540Z,1021.87
2023-01-21T06:03:01.495Z,1021.90
2023-01-21T06:04:01.477Z,1021.92
2023-01-21T06:05:01.494Z,1021.92
2023-01-21T06:06:01.482Z,1021.85
2023-01-21T06:07:01.472Z,1021.93
2023-01-21T06:08:01.470Z,1021.97
2023-01-21T06:09:01.520Z,1021.96
2023-01-21T06:10:01.472Z,1021.95
2023-01-21T06:11:01.495Z,1022.01
2023-01-21T06:12:01.514Z,1022.03
2023-01-21T06:13:01.481Z,1022.05
2023-01-21T06:14:01.472Z,1022.05
2023-01-21T06:15:01.529Z,1022.09
2023-01-21T06:16:01.556Z,1022.09
2023-01-21T06:17:01.544Z,1022.10
2023-01-21T06:18:01.473Z,1022.08
2023-01-21T06:19:01.532Z,1022.05
2023-01-21T06:20:01.511Z,1022.06
2023-01-21T06:21:01.514Z,1022.05
2023-01-21T06:22:01.484Z,1022.04
2023-01-21T06:23:01.474Z,1022.02
2023-01-21T06:24:01.478Z,1022.03
2023-01-21T06:25:01.488Z,1022.06
2023-01-21T06:26:01.509Z,1022.06
2023-01-21T06:27:01.489Z,1022.06
2023-01-21T06:28:01.502Z,1022.09
2023-01-21T06:29:01.481Z,1022.10
2023-01-21T06:30:01.513Z,1022.08
2023-01-21T06:31:01.640Z,1022.06
2023-01-21T06:32:01.703Z,1022.04
2023-01-21T06:33:01.486Z,1022.00
2023-01-21T06:34:01.481Z,1022.02
2023-01-21T06:35:01.563Z,1022.06
2023-01-21T06:36:01.480Z,1022.02
2023-01-21T06:37:01.491Z,1022.02
2023-01-21T06:38:01.536Z,1022.03
2023-01-21T06:39:01.483Z,1022.07
2023-01-21T06:40:01.490Z,1022.10
2023-01-21T06:41:01.485Z,1022.12
2023-01-21T06:42:01.492Z,1022.09
2023-01-21T06:43:01.494Z,1022.14
2023-01-21T06:44:01.488Z,1022.10
2023-01-21T06:45:01.489Z,1022.12
2023-01-21T06:46:01.542Z,1022.15
2023-01-21T06:47:02.073Z,1022.18
2023-01-21T06:48:01.496Z,1022.11
2023-01-21T06:49:01.500Z,1022.11
2023-01-21T06:50:01.537Z,1022.11
2023-01-21T06:51:01.647Z,1022.14
2023-01-21T06:52:01.493Z,1022.17
2023-01-21T06:53:01.499Z,1022.18
2023-01-21T06:54:01.488Z,1022.21
2023-01-21T06:55:01.485Z,1022.21
2023-01-21T06:56:01.506Z,1022.24
2023-01-21T06:57:01.496Z,1022.25
2023-01-21T06:58:01.495Z,1022.23
2023-01-21T06:59:01.495Z,1022.31
2023-01-21T07:00:01.497Z,1022.22
2023-01-21T07:01:01.497Z,1022.26
2023-01-21T07:02:01.485Z,1022.26
2023-01-21T07:03:01.533Z,1022.24
2023-01-21T07:04:01.617Z,1022.27
2023-01-21T07:05:01.508Z,1022.27
2023-01-21T07:06:01.489Z,1022.30
2023-01-21T07:07:01.581Z,1022.30
2023-01-21T07:08:01.529Z,1022.32
2023-01-21T07:09:01.502Z,1022.33
2023-01-21T07:10:01.487Z,1022.32
2023-01-21T07:11:01.493Z,1022.30
2023-01-21T07:12:01.496Z,1022.32
2023-01-21T07:13:01.502Z,1022.37
2023-01-21T07:14:01.498Z,1022.38
2023-01-21T07:15:01.528Z,1022.39
2023-01-21T07:16:01.654Z,1022.41
2023-01-21T07:17:01.500Z,1022.43
2023-01-21T07:18:01.491Z,1022.41
2023-01-21T07:19:01.489Z,1022.42
2023-01-21T07:20:01.495Z,1022.39
2023-01-21T07:21:01.525Z,1022.45
2023-01-21T07:22:01.499Z,1022.48
2023-01-21T07:23:01.535Z,1022.48
2023-01-21T07:24:01.520Z,1022.50
2023-01-21T07:25:01.505Z,1022.49
2023-01-21T07:26:01.497Z,1022.55
2023-01-21T07:27:01.498Z,1022.50
2023-01-21T07:28:01.493Z,1022.57
2023-01-21T07:29:02.028Z,1022.54
2023-01-21T07:30:01.535Z,1022.52
2023-01-21T07:31:01.713Z,1022.54
2023-01-21T07:32:01.592Z,1022.61
2023-01-21T07:33:01.492Z,1022.58
2023-01-21T07:34:01.548Z,1022.54
2023-01-21T07:35:01.526Z,1022.57
2023-01-21T07:36:01.500Z,1022.62
2023-01-21T07:37:01.496Z,1022.59
2023-01-21T07:38:01.501Z,1022.59
2023-01-21T07:39:01.529Z,1022.55
2023-01-21T07:40:01.492Z,1022.60
2023-01-21T07:41:01.493Z,1022.55
2023-01-21T07:42:01.495Z,1022.58
2023-01-21T07:43:01.510Z,1022.53
2023-01-21T07:44:01.528Z,1022.54
2023-01-21T07:45:01.497Z,1022.52
2023-01-21T07:46:01.517Z,1022.50
2023-01-21T07:47:01.537Z,1022.58
2023-01-21T07:48:01.503Z,1022.56
2023-01-21T07:49:01.495Z,1022.57
2023-01-21T07:50:01.494Z,1022.56
2023-01-21T07:51:01.549Z,1022.58
2023-01-21T07:52:01.502Z,1022.51
2023-01-21T07:53:01.500Z,1022.53
2023-01-21T07:54:01.494Z,1022.62
2023-01-21T07:55:01.595Z,1022.57
2023-01-21T07:56:01.494Z,1022.57
2023-01-21T07:57:01.503Z,1022.60
2023-01-21T07:58:01.512Z,1022.64
2023-01-21T07:59:01.501Z,1022.62
2023-01-21T08:00:01.495Z,1022.58
2023-01-21T08:01:01.502Z,1022.61
2023-01-21T08:02:01.669Z,1022.61
2023-01-21T08:03:01.501Z,1022.57
2023-01-21T08:04:01.508Z,1022.58
2023-01-21T08:05:01.545Z,1022.58
2023-01-21T08:06:01.501Z,1022.56
2023-01-21T08:07:01.498Z,1022.58
2023-01-21T08:08:01.502Z,1022.58
2023-01-21T08:09:01.548Z,1022.57
2023-01-21T08:10:01.501Z,1022.59
2023-01-21T08:11:01.584Z,1022.61
2023-01-21T08:12:01.502Z,1022.62
2023-01-21T08:13:01.497Z,1022.58
2023-01-21T08:14:01.495Z,1022.63
2023-01-21T08:15:01.506Z,1022.60
2023-01-21T08:16:01.550Z,1022.61
2023-01-21T08:17:01.542Z,1022.64
2023-01-21T08:18:01.509Z,1022.62
2023-01-21T08:19:01.509Z,1022.63
2023-01-21T08:20:01.507Z,1022.64
2023-01-21T08:21:01.505Z,1022.66
2023-01-21T08:22:01.516Z,1022.63
2023-01-21T08:23:01.509Z,1022.65
2023-01-21T08:24:01.512Z,1022.66
2023-01-21T08:25:01.507Z,1022.61
2023-01-21T08:26:01.511Z,1022.64
2023-01-21T08:27:01.598Z,1022.68
2023-01-21T08:28:01.507Z,1022.69
2023-01-21T08:29:01.509Z,1022.68
2023-01-21T08:30:01.512Z,1022.66
2023-01-21T08:31:01.556Z,1022.66
2023-01-21T08:32:01.556Z,1022.66
2023-01-21T08:33:01.526Z,1022.67
2023-01-21T08:34:01.545Z,1022.66
2023-01-21T08:35:01.529Z,1022.68
2023-01-21T08:36:01.542Z,1022.62
2023-01-21T08:37:01.514Z,1022.63
2023-01-21T08:38:01.512Z,1022.62
2023-01-21T08:39:01.547Z,1022.66
2023-01-21T08:40:01.550Z,1022.69
2023-01-21T08:41:01.521Z,1022.69
2023-01-21T08:42:01.561Z,1022.69
2023-01-21T08:43:01.578Z,1022.75
2023-01-21T08:44:01.551Z,1022.71
2023-01-21T08:45:01.551Z,1022.78
2023-01-21T08:46:01.737Z,1022.72
2023-01-21T08:47:01.546Z,1022.78
2023-01-21T08:48:01.561Z,1022.76
2023-01-21T08:49:01.554Z,1022.79
2023-01-21T08:50:01.552Z,1022.75
2023-01-21T08:51:01.543Z,1022.76
2023-01-21T08:52:01.515Z,1022.79
2023-01-21T08:53:01.560Z,1022.82
2023-01-21T08:54:01.519Z,1022.76
2023-01-21T08:55:01.549Z,1022.78
2023-01-21T08:56:01.560Z,1022.83
2023-01-21T08:57:01.567Z,1022.85
2023-01-21T08:58:01.568Z,1022.88
2023-01-21T08:59:01.575Z,1022.87
2023-01-21T09:00:01.659Z,1022.91
2023-01-21T09:01:01.547Z,1022.86
2023-01-21T09:02:01.620Z,1022.87
2023-01-21T09:03:01.576Z,1022.87
2023-01-21T09:04:01.536Z,1022.85
2023-01-21T09:05:01.536Z,1022.90
2023-01-21T09:06:01.590Z,1022.93
2023-01-21T09:07:01.558Z,1022.88
2023-01-21T09:08:01.559Z,1022.90
2023-01-21T09:09:01.542Z,1022.87
2023-01-21T09:10:01.532Z,1022.87
2023-01-21T09:11:01.615Z,1022.90
2023-01-21T09:12:01.543Z,1022.90
2023-01-21T09:13:01.536Z,1022.88
2023-01-21T09:14:01.533Z,1022.90
2023-01-21T09:15:01.567Z,1022.92
2023-01-21T09:16:01.548Z,1022.93
2023-01-21T09:17:01.542Z,1022.96
2023-01-21T09:18:01.530Z,1022.99
2023-01-21T09:19:01.562Z,1022.94
2023-01-21T09:20:01.556Z,1022.97
2023-01-21T09:21:01.591Z,1023.02
2023-01-21T09:22:01.573Z,1022.98
2023-01-21T09:23:01.546Z,1022.93
2023-01-21T09:24:01.589Z,1022.97
2023-01-21T09:25:01.571Z,1023.02
2023-01-21T09:26:01.545Z,1023.01
2023-01-21T09:27:01.549Z,1023.01
2023-01-21T09:28:01.547Z,1023.02
2023-01-21T09:29:01.537Z,1023.04
2023-01-21T09:30:01.545Z,1023.02
2023-01-21T09:31:01.658Z,1023.06
2023-01-21T09:32:01.641Z,1023.04
2023-01-21T09:33:01.547Z,1022.99
2023-01-21T09:34:01.572Z,1023.04
2023-01-21T09:35:01.557Z,1023.09
2023-01-21T09:36:01.616Z,1023.05
2023-01-21T09:37:01.542Z,1023.09
2023-01-21T09:38:01.561Z,1023.14
2023-01-21T09:39:01.567Z,1023.20
2023-01-21T09:40:01.547Z,1023.22
2023-01-21T09:41:01.569Z,1023.22
2023-01-21T09:42:01.548Z,1023.23
2023-01-21T09:43:01.563Z,1023.24
2023-01-21T09:44:01.553Z,1023.20
2023-01-21T09:45:01.574Z,1023.19
2023-01-21T09:46:03.929Z,1023.22
2023-01-21T09:47:01.593Z,1023.23
2023-01-21T09:48:01.561Z,1023.20
2023-01-21T09:49:01.556Z,1023.23
2023-01-21T09:50:01.562Z,1023.20
2023-01-21T09:51:01.639Z,1023.22
2023-01-21T09:52:01.564Z,1023.22
2023-01-21T09:53:01.560Z,1023.23
2023-01-21T09:54:01.564Z,1023.15
2023-01-21T09:55:01.559Z,1023.17
2023-01-21T09:56:01.563Z,1023.20
2023-01-21T09:57:01.561Z,1023.25
2023-01-21T09:58:01.573Z,1023.19
2023-01-21T09:59:01.560Z,1023.23
2023-01-21T10:00:01.579Z,1023.22
2023-01-21T10:01:01.603Z,1023.25
2023-01-21T10:02:01.572Z,1023.30
2023-01-21T10:03:01.599Z,1023.29
2023-01-21T10:04:01.574Z,1023.31
2023-01-21T10:05:01.574Z,1023.24
2023-01-21T10:06:01.571Z,1023.29
2023-01-21T10:07:01.577Z,1023.30
2023-01-21T10:08:01.581Z,1023.37
2023-01-21T10:09:01.571Z,1023.33
2023-01-21T10:10:01.573Z,1023.34
2023-01-21T10:11:01.575Z,1023.38
2023-01-21T10:12:01.574Z,1023.36
2023-01-21T10:13:01.582Z,1023.37
2023-01-21T10:14:01.576Z,1023.34
2023-01-21T10:15:01.578Z,1023.42
2023-01-21T10:16:01.578Z,1023.36
2023-01-21T10:17:01.588Z,1023.39
2023-01-21T10:18:01.580Z,1023.36
2023-01-21T10:19:01.618Z,1023.37
2023-01-21T10:20:01.583Z,1023.37
2023-01-21T10:21:01.584Z,1023.36
2023-01-21T10:22:01.590Z,1023.36
2023-01-21T10:23:01.598Z,1023.40
2023-01-21T10:24:01.596Z,1023.35
2023-01-21T10:25:01.595Z,1023.43
2023-01-21T10:26:01.604Z,1023.36
2023-01-21T10:27:01.609Z,1023.35
2023-01-21T10:28:01.617Z,1023.38
2023-01-21T10:29:01.606Z,1023.36
2023-01-21T10:30:01.643Z,1023.39
2023-01-21T10:31:01.832Z,1023.37
2023-01-21T10:32:01.601Z,1023.39
2023-01-21T10:33:01.599Z,1023.38
2023-01-21T10:34:01.596Z,1023.42
2023-01-21T10:35:01.617Z,1023.41
2023-01-21T10:36:01.605Z,1023.40
2023-01-21T10:37:01.610Z,1023.38
2023-01-21T10:38:01.607Z,1023.37
2023-01-21T10:39:01.603Z,1023.36
2023-01-21T10:40:01.665Z,1023.36
2023-01-21T10:41:01.610Z,1023.36
2023-01-21T10:42:01.612Z,1023.35
2023-01-21T10:43:01.604Z,1023.38
2023-01-21T10:44:01.607Z,1023.37
2023-01-21T10:45:01.611Z,1023.39
2023-01-21T10:46:01.683Z,1023.39
2023-01-21T10:47:01.610Z,1023.36
2023-01-21T10:48:01.621Z,1023.42
2023-01-21T10:49:01.630Z,1023.38
2023-01-21T10:50:01.704Z,1023.36
2023-01-21T10:51:01.672Z,1023.34
2023-01-21T10:52:01.615Z,1023.33
2023-01-21T10:53:01.629Z,1023.32
2023-01-21T10:54:01.624Z,1023.35
2023-01-21T10:55:01.629Z,1023.37
2023-01-21T10:56:01.626Z,1023.31
2023-01-21T10:57:01.628Z,1023.36
2023-01-21T10:58:01.628Z,1023.33
2023-01-21T10:59:01.627Z,1023.34
2023-01-21T11:00:01.690Z,1023.35
2023-01-21T11:01:01.691Z,1023.35
2023-01-21T11:02:01.636Z,1023.34
2023-01-21T11:03:01.629Z,1023.30
2023-01-21T11:04:01.633Z,1023.40
2023-01-21T11:05:01.634Z,1023.39
2023-01-21T11:06:01.633Z,1023.38
2023-01-21T11:07:01.671Z,1023.40
2023-01-21T11:08:01.632Z,1023.36
2023-01-21T11:09:01.671Z,1023.35
2023-01-21T11:10:01.647Z,1023.36
2023-01-21T11:11:01.642Z,1023.35
2023-01-21T11:12:01.646Z,1023.40
2023-01-21T11:13:01.645Z,1023.37
2023-01-21T11:14:01.649Z,1023.36
2023-01-21T11:15:01.650Z,1023.32
2023-01-21T11:16:01.723Z,1023.33
2023-01-21T11:17:01.659Z,1023.30
2023-01-21T11:18:01.654Z,1023.30
2023-01-21T11:19:01.668Z,1023.31
2023-01-21T11:20:01.670Z,1023.26
2023-01-21T11:21:01.650Z,1023.25
2023-01-21T11:22:01.665Z,1023.23
2023-01-21T11:23:01.680Z,1023.25
2023-01-21T11:24:01.672Z,1023.29
2023-01-21T11:25:01.672Z,1023.32
2023-01-21T11:26:01.675Z,1023.30
2023-01-21T11:27:01.666Z,1023.27
2023-01-21T11:28:01.674Z,1023.25
2023-01-21T11:29:01.672Z,1023.20
2023-01-21T11:30:01.687Z,1023.22
2023-01-21T11:31:01.737Z,1023.26
2023-01-21T11:32:01.881Z,1023.28
2023-01-21T11:33:01.684Z,1023.21
2023-01-21T11:34:01.691Z,1023.18
2023-01-21T11:35:01.689Z,1023.20
2023-01-21T11:36:01.688Z,1023.18
2023-01-21T11:37:01.703Z,1023.17
2023-01-21T11:38:01.714Z,1023.13
2023-01-21T11:39:01.791Z,1023.11
2023-01-21T11:40:01.709Z,1023.07
2023-01-21T11:41:01.740Z,1023.06
2023-01-21T11:42:01.708Z,1023.02
2023-01-21T11:43:01.726Z,1022.98
2023-01-21T11:44:01.746Z,1023.02
2023-01-21T11:45:01.724Z,1022.94
2023-01-21T11:46:01.752Z,1022.93
2023-01-21T11:47:01.731Z,1022.95
2023-01-21T11:48:01.729Z,1022.91
2023-01-21T11:49:01.729Z,1022.88
2023-01-21T11:50:01.732Z,1022.89
2023-01-21T11:51:01.780Z,1022.89
2023-01-21T11:52:01.743Z,1022.89
2023-01-21T11:53:02.020Z,1022.89
2023-01-21T11:54:01.751Z,1022.88
2023-01-21T11:55:01.780Z,1022.78
2023-01-21T11:56:01.762Z,1022.84
2023-01-21T11:57:01.782Z,1022.80
2023-01-21T11:58:01.769Z,1022.82
2023-01-21T11:59:01.769Z,1022.81
2023-01-21T12:00:01.768Z,1022.76
2023-01-21T12:01:01.787Z,1022.80
2023-01-21T12:02:01.787Z,1022.76
2023-01-21T12:03:01.855Z,1022.76
2023-01-21T12:04:01.876Z,1022.78
2023-01-21T12:05:01.793Z,1022.72